Time;durP1;ratioP1;P1;durP2;ratioP2;P2;SDS_P1;SDS_P2;PMS_P1;PMS_P2;Temp;Humidity;BMP_temperature;BMP_pressure;BME280_temperature;BME280_humidity;BME280_pressure;Samples;Min_cycle;Max_cycle;Signal;HPM_P1;HPM_P2
2021/05/22 00:00:12;;;;;;;6.60;1.85;;;;;;;;;;5010095;28;20021;-62
2021/05/22 00:02:38;;;;;;;7.13;2.38;;;;;;;;;;5010389;28;20057;-61
2021/05/22 00:05:06;;;;;;;5.88;2.17;;;;;;;;;;5009761;28;20045;-60
2021/05/22 00:07:32;;;;;;;5.75;1.75;;;;;;;;;;5009234;28;20030;-61
2021/05/22 00:09:58;;;;;;;4.43;1.50;;;;;;;;;;5009084;28;20474;-60
2021/05/22 00:12:24;;;;;;;7.93;2.00;;;;;;;;;;5008928;28;20503;-60
2021/05/22 00:14:52;;;;;;;6.55;1.63;;;;;;;;;;5009319;28;20054;-61
2021/05/22 00:17:18;;;;;;;4.55;1.75;;;;;;;;;;5008899;28;20093;-61
2021/05/22 00:19:44;;;;;;;5.28;1.80;;;;;;;;;;5008965;28;20034;-61
2021/05/22 00:22:10;;;;;;;6.22;1.70;;;;;;;;;;5008588;28;20069;-60
2021/05/22 00:24:36;;;;;;;7.85;1.55;;;;;;;;;;5008836;28;20026;-61
2021/05/22 00:27:02;;;;;;;6.10;1.30;;;;;;;;;;5008709;28;20530;-61
2021/05/22 00:29:28;;;;;;;8.75;1.60;;;;;;;;;;5008876;28;20029;-61
2021/05/22 00:31:54;;;;;;;7.97;1.70;;;;;;;;;;5009032;28;20131;-60
2021/05/22 00:34:20;;;;;;;5.85;1.88;;;;;;;;;;5008796;28;20055;-61
2021/05/22 00:36:46;;;;;;;5.63;1.58;;;;;;;;;;5008660;28;20020;-61
2021/05/22 00:39:12;;;;;;;5.95;1.67;;;;;;;;;;5009774;28;20034;-60
2021/05/22 00:41:39;;;;;;;5.65;1.70;;;;;;;;;;5012274;28;20024;-60
2021/05/22 00:44:05;;;;;;;4.85;1.63;;;;;;;;;;5012178;28;20062;-60
2021/05/22 00:46:31;;;;;;;5.88;1.67;;;;;;;;;;5043955;28;20026;-61
2021/05/22 00:48:57;;;;;;;4.95;1.50;;;;;;;;;;5012305;28;20026;-62
2021/05/22 00:51:23;;;;;;;3.38;1.45;;;;;;;;;;5012002;28;20044;-60
2021/05/22 00:53:50;;;;;;;9.98;1.88;;;;;;;;;;5012057;28;20593;-60
2021/05/22 00:56:16;;;;;;;5.70;1.70;;;;;;;;;;5011938;28;20026;-61
2021/05/22 00:58:43;;;;;;;4.75;2.15;;;;;;;;;;5012039;28;20029;-60
2021/05/22 01:01:10;;;;;;;4.32;1.52;;;;;;;;;;5003883;28;20498;-60
2021/05/22 01:03:41;;;;;;;5.72;1.75;;;;;;;;;;4992257;28;20541;-60
2021/05/22 01:06:22;;;;;;;4.32;1.70;;;;;;;;;;4992270;28;20023;-61
2021/05/22 01:08:49;;;;;;;5.35;1.83;;;;;;;;;;5003696;28;20095;-61
2021/05/22 01:11:23;;;;;;;7.07;1.45;;;;;;;;;;5011839;28;20026;-60
2021/05/22 01:13:53;;;;;;;3.83;1.50;;;;;;;;;;5011696;28;20034;-60
2021/05/22 01:16:20;;;;;;;6.45;1.70;;;;;;;;;;5011385;28;20026;-60
2021/05/22 01:18:46;;;;;;;3.20;1.58;;;;;;;;;;5011622;28;20500;-61
2021/05/22 01:21:13;;;;;;;6.85;1.67;;;;;;;;;;5011552;28;20030;-61
2021/05/22 01:23:39;;;;;;;5.13;1.77;;;;;;;;;;5011558;28;20037;-59
2021/05/22 01:26:05;;;;;;;5.15;2.08;;;;;;;;;;5011438;28;20022;-60
2021/05/22 01:28:35;;;;;;;4.60;1.60;;;;;;;;;;5011591;28;20021;-61
2021/05/22 01:31:02;;;;;;;8.00;2.28;;;;;;;;;;5011483;28;20014;-61
2021/05/22 01:33:29;;;;;;;4.22;1.40;;;;;;;;;;5011412;28;20026;-62
2021/05/22 01:35:55;;;;;;;3.75;1.40;;;;;;;;;;5011384;28;20041;-60
2021/05/22 01:38:21;;;;;;;3.42;1.40;;;;;;;;;;5011252;28;20046;-60
2021/05/22 01:40:50;;;;;;;3.78;1.30;;;;;;;;;;5009625;28;20082;-61
2021/05/22 01:43:16;;;;;;;3.45;1.38;;;;;;;;;;4991725;28;20479;-62
2021/05/22 01:45:46;;;;;;;4.95;2.08;;;;;;;;;;4992002;28;20026;-60
2021/05/22 01:48:14;;;;;;;8.43;1.52;;;;;;;;;;4991730;28;20030;-61
2021/05/22 01:50:43;;;;;;;5.07;1.60;;;;;;;;;;4990913;28;20097;-60
2021/05/22 01:53:11;;;;;;;4.18;1.30;;;;;;;;;;4991710;28;20624;-61
2021/05/22 01:55:38;;;;;;;5.15;1.20;;;;;;;;;;4991531;28;20093;-60
2021/05/22 01:58:05;;;;;;;3.88;1.30;;;;;;;;;;4991444;28;20068;-60
2021/05/22 02:00:31;;;;;;;4.45;1.30;;;;;;;;;;5008570;28;20019;-61
2021/05/22 02:03:15;;;;;;;4.47;1.30;;;;;;;;;;5114315;28;20106;-62
2021/05/22 02:05:41;;;;;;;5.25;1.30;;;;;;;;;;5114471;28;20027;-60
2021/05/22 02:08:10;;;;;;;3.03;1.52;;;;;;;;;;5114352;28;20016;-60
2021/05/22 02:10:36;;;;;;;4.22;1.45;;;;;;;;;;5114422;28;20028;-60
2021/05/22 02:13:03;;;;;;;3.28;1.45;;;;;;;;;;5114280;28;20488;-60
2021/05/22 02:15:30;;;;;;;3.88;1.67;;;;;;;;;;5114332;28;20057;-60
2021/05/22 02:17:56;;;;;;;4.82;1.38;;;;;;;;;;5114195;28;20024;-60
2021/05/22 02:20:23;;;;;;;3.97;1.60;;;;;;;;;;5112839;28;20115;-60
2021/05/22 02:22:49;;;;;;;3.75;1.02;;;;;;;;;;5114007;28;20027;-60
2021/05/22 02:25:16;;;;;;;6.78;1.70;;;;;;;;;;5114009;28;20058;-60
2021/05/22 02:27:42;;;;;;;3.20;1.25;;;;;;;;;;5114113;28;20028;-60
2021/05/22 02:30:09;;;;;;;3.03;1.25;;;;;;;;;;5114027;28;20069;-62
2021/05/22 02:32:37;;;;;;;2.70;1.20;;;;;;;;;;5114023;28;20027;-60
2021/05/22 02:35:03;;;;;;;6.43;1.50;;;;;;;;;;5113887;28;20673;-60
2021/05/22 02:37:31;;;;;;;4.15;1.35;;;;;;;;;;5113646;28;20079;-61
2021/05/22 02:40:00;;;;;;;4.05;1.40;;;;;;;;;;5113598;28;20019;-60
2021/05/22 02:42:30;;;;;;;3.58;1.33;;;;;;;;;;5113433;28;20475;-60
2021/05/22 02:44:57;;;;;;;2.53;0.93;;;;;;;;;;5112324;28;20030;-60
2021/05/22 02:47:24;;;;;;;5.20;1.40;;;;;;;;;;5113588;28;20460;-60
2021/05/22 02:49:51;;;;;;;3.70;1.25;;;;;;;;;;5113702;28;20521;-61
2021/05/22 02:52:19;;;;;;;3.03;1.02;;;;;;;;;;5113540;28;20016;-60
2021/05/22 02:54:46;;;;;;;4.47;1.10;;;;;;;;;;5113546;28;20461;-60
2021/05/22 02:57:13;;;;;;;3.78;1.20;;;;;;;;;;5113710;28;20050;-61
2021/05/22 02:59:40;;;;;;;3.70;1.25;;;;;;;;;;5113362;28;20020;-60
2021/05/22 03:02:08;;;;;;;3.13;1.05;;;;;;;;;;5025590;28;20092;-61
2021/05/22 03:04:34;;;;;;;2.95;1.10;;;;;;;;;;4990617;28;20113;-60
2021/05/22 03:07:04;;;;;;;2.90;0.90;;;;;;;;;;4990643;28;20106;-60
2021/05/22 03:09:30;;;;;;;2.67;1.02;;;;;;;;;;4990564;28;20022;-60
2021/05/22 03:11:56;;;;;;;4.40;1.02;;;;;;;;;;4990515;28;20483;-61
2021/05/22 03:14:22;;;;;;;4.75;1.45;;;;;;;;;;5021702;28;20117;-60
2021/05/22 03:16:48;;;;;;;2.67;1.10;;;;;;;;;;5021981;28;20022;-60
2021/05/22 03:19:14;;;;;;;4.93;1.23;;;;;;;;;;4990432;28;20026;-60
2021/05/22 03:21:40;;;;;;;2.85;1.08;;;;;;;;;;4990552;28;20491;-60
2021/05/22 03:24:07;;;;;;;5.55;1.23;;;;;;;;;;4990187;28;20079;-60
2021/05/22 03:26:34;;;;;;;5.93;1.20;;;;;;;;;;4990327;28;20067;-61
2021/05/22 03:29:00;;;;;;;1.92;0.90;;;;;;;;;;4990247;28;20528;-60
2021/05/22 03:31:26;;;;;;;2.38;1.10;;;;;;;;;;4990137;28;20027;-60
2021/05/22 03:33:52;;;;;;;2.53;1.15;;;;;;;;;;4990007;28;20026;-60
2021/05/22 03:36:18;;;;;;;2.50;1.10;;;;;;;;;;4990020;28;20119;-61
2021/05/22 03:38:44;;;;;;;3.30;1.15;;;;;;;;;;4989938;28;20064;-60
2021/05/22 03:41:10;;;;;;;5.38;1.45;;;;;;;;;;4990192;28;20030;-60
2021/05/22 03:43:36;;;;;;;4.32;1.27;;;;;;;;;;5009722;28;20121;-60
2021/05/22 03:46:02;;;;;;;4.80;1.23;;;;;;;;;;5009446;28;20033;-61
2021/05/22 03:48:28;;;;;;;3.88;1.27;;;;;;;;;;5009450;28;20537;-60
2021/05/22 03:50:55;;;;;;;2.42;1.00;;;;;;;;;;5009228;28;20117;-60
2021/05/22 03:53:21;;;;;;;4.53;1.30;;;;;;;;;;5008997;28;20014;-60
2021/05/22 03:55:47;;;;;;;4.07;1.20;;;;;;;;;;5009247;28;20022;-60
2021/05/22 03:58:14;;;;;;;3.05;1.30;;;;;;;;;;5009356;28;20371;-61
2021/05/22 04:00:40;;;;;;;4.05;1.38;;;;;;;;;;5040774;28;20022;-60
2021/05/22 04:03:06;;;;;;;3.95;1.42;;;;;;;;;;5009217;28;20059;-60
2021/05/22 04:05:34;;;;;;;5.35;1.40;;;;;;;;;;5009179;28;20024;-60
2021/05/22 04:08:00;;;;;;;4.63;1.20;;;;;;;;;;5009204;28;20048;-60
2021/05/22 04:10:26;;;;;;;5.63;1.30;;;;;;;;;;5008779;28;20026;-61
2021/05/22 04:12:52;;;;;;;4.13;1.20;;;;;;;;;;5009149;28;20102;-61
2021/05/22 04:15:18;;;;;;;2.95;1.42;;;;;;;;;;5008394;28;20034;-60
2021/05/22 04:17:44;;;;;;;9.00;1.75;;;;;;;;;;5008978;28;20022;-60
2021/05/22 04:20:10;;;;;;;4.57;1.17;;;;;;;;;;5008748;28;20538;-61
2021/05/22 04:22:36;;;;;;;2.88;1.30;;;;;;;;;;5008696;28;20123;-60
2021/05/22 04:25:03;;;;;;;4.00;1.23;;;;;;;;;;5040609;28;20037;-61
2021/05/22 04:27:29;;;;;;;5.90;1.40;;;;;;;;;;5008990;28;20497;-61
2021/05/22 04:29:55;;;;;;;2.35;1.20;;;;;;;;;;5008780;28;20022;-61
2021/05/22 04:32:21;;;;;;;5.15;1.48;;;;;;;;;;5008650;28;20061;-60
2021/05/22 04:34:47;;;;;;;6.47;1.60;;;;;;;;;;5009087;28;20060;-60
2021/05/22 04:37:13;;;;;;;4.45;1.38;;;;;;;;;;5008712;28;20070;-60
2021/05/22 04:39:39;;;;;;;5.55;1.45;;;;;;;;;;5008850;28;20026;-60
2021/05/22 04:42:05;;;;;;;3.33;1.40;;;;;;;;;;5008609;28;20025;-60
2021/05/22 04:44:31;;;;;;;7.57;1.73;;;;;;;;;;5008832;28;20065;-60
2021/05/22 04:46:58;;;;;;;3.17;1.52;;;;;;;;;;4993423;28;20085;-60
2021/05/22 04:49:27;;;;;;;5.88;1.67;;;;;;;;;;4989155;28;20022;-60
2021/05/22 04:51:53;;;;;;;5.10;1.55;;;;;;;;;;4989061;28;20019;-60
2021/05/22 04:54:19;;;;;;;4.65;1.60;;;;;;;;;;4988882;28;20038;-60
2021/05/22 04:56:45;;;;;;;3.53;1.48;;;;;;;;;;4988773;28;20042;-61
2021/05/22 04:59:11;;;;;;;4.32;1.70;;;;;;;;;;4988803;28;20027;-60
2021/05/22 05:01:40;;;;;;;5.53;1.70;;;;;;;;;;5062047;28;20031;-61
2021/05/22 05:04:06;;;;;;;4.78;1.70;;;;;;;;;;5111324;28;20043;-60
2021/05/22 05:06:32;;;;;;;6.82;1.80;;;;;;;;;;5110062;28;20083;-60
2021/05/22 05:08:58;;;;;;;4.47;1.50;;;;;;;;;;5111465;28;20058;-61
2021/05/22 05:11:24;;;;;;;5.25;1.40;;;;;;;;;;5111687;28;20023;-61
2021/05/22 05:13:50;;;;;;;3.28;1.55;;;;;;;;;;5111521;28;20023;-60
2021/05/22 05:16:16;;;;;;;7.65;1.85;;;;;;;;;;5109885;28;20412;-61
2021/05/22 05:18:43;;;;;;;7.28;1.90;;;;;;;;;;5111412;28;20031;-60
2021/05/22 05:21:09;;;;;;;4.63;1.63;;;;;;;;;;5111393;28;20028;-61
2021/05/22 05:23:36;;;;;;;4.57;1.92;;;;;;;;;;5111161;28;20065;-60
2021/05/22 05:26:03;;;;;;;4.85;1.58;;;;;;;;;;5113803;28;20024;-60
2021/05/22 05:28:30;;;;;;;5.95;1.50;;;;;;;;;;5115243;28;20055;-61
2021/05/22 05:30:56;;;;;;;4.82;1.60;;;;;;;;;;5115116;28;20016;-61
2021/05/22 05:33:22;;;;;;;5.70;1.50;;;;;;;;;;5115060;28;20037;-61
2021/05/22 05:35:49;;;;;;;4.57;1.55;;;;;;;;;;5115088;28;20073;-60
2021/05/22 05:38:15;;;;;;;3.90;1.50;;;;;;;;;;5114801;28;20403;-60
2021/05/22 05:40:41;;;;;;;5.65;1.70;;;;;;;;;;5115017;28;20106;-61
2021/05/22 05:43:10;;;;;;;5.07;1.70;;;;;;;;;;5114965;28;20425;-60
2021/05/22 05:45:37;;;;;;;9.80;1.73;;;;;;;;;;5114871;28;20016;-61
2021/05/22 05:48:04;;;;;;;5.07;1.55;;;;;;;;;;5114934;28;20020;-61
2021/05/22 05:50:30;;;;;;;4.65;1.55;;;;;;;;;;5113351;28;20012;-60
2021/05/22 05:52:56;;;;;;;4.07;1.50;;;;;;;;;;5114961;28;20020;-61
2021/05/22 05:55:22;;;;;;;2.97;1.45;;;;;;;;;;5115092;28;20019;-62
2021/05/22 05:57:49;;;;;;;3.90;1.30;;;;;;;;;;5114748;28;20034;-63
2021/05/22 06:00:16;;;;;;;4.72;1.50;;;;;;;;;;5110715;28;20019;-61
2021/05/22 06:02:42;;;;;;;4.93;1.30;;;;;;;;;;5023284;28;20033;-62
2021/05/22 06:05:08;;;;;;;7.18;1.30;;;;;;;;;;4991494;28;20054;-60
2021/05/22 06:07:34;;;;;;;6.78;1.50;;;;;;;;;;4991216;28;20019;-61
2021/05/22 06:10:00;;;;;;;5.85;1.55;;;;;;;;;;4991203;28;20058;-61
2021/05/22 06:12:27;;;;;;;5.40;1.65;;;;;;;;;;4991878;28;20026;-61
2021/05/22 06:15:03;;;;;;;5.97;1.38;;;;;;;;;;4991193;28;20040;-61
2021/05/22 06:17:30;;;;;;;3.97;1.30;;;;;;;;;;4991363;28;20106;-62
2021/05/22 06:19:56;;;;;;;3.50;1.20;;;;;;;;;;4991365;28;20034;-62
2021/05/22 06:22:22;;;;;;;3.72;1.63;;;;;;;;;;4991174;28;20061;-61
2021/05/22 06:24:48;;;;;;;3.78;1.38;;;;;;;;;;4991260;28;20031;-62
2021/05/22 06:27:14;;;;;;;3.88;1.67;;;;;;;;;;4991201;28;20026;-61
2021/05/22 06:29:40;;;;;;;3.08;1.33;;;;;;;;;;4991147;28;20511;-62
2021/05/22 06:32:06;;;;;;;2.92;1.17;;;;;;;;;;4990998;28;20026;-62
2021/05/22 06:34:32;;;;;;;6.00;1.33;;;;;;;;;;4991062;28;20491;-63
2021/05/22 06:36:58;;;;;;;5.80;1.40;;;;;;;;;;4990398;28;20102;-63
2021/05/22 06:39:24;;;;;;;2.65;1.20;;;;;;;;;;4991024;28;20433;-63
2021/05/22 06:41:50;;;;;;;4.68;1.27;;;;;;;;;;4991435;28;20047;-60
2021/05/22 06:44:23;;;;;;;3.28;1.08;;;;;;;;;;4990921;28;20034;-62
2021/05/22 06:46:49;;;;;;;;;;;;;;;;;;5003163;28;20022;-61
2021/05/22 06:49:16;;;;;;;3.15;1.25;;;;;;;;;;5010514;28;19909;-62
2021/05/22 06:51:42;;;;;;;6.18;1.58;;;;;;;;;;5010473;28;20030;-62
2021/05/22 06:54:08;;;;;;;3.80;1.30;;;;;;;;;;5010462;28;20032;-61
2021/05/22 06:56:34;;;;;;;2.83;1.25;;;;;;;;;;5010471;28;20057;-60
2021/05/22 06:59:00;;;;;;;3.35;1.35;;;;;;;;;;5010470;28;20022;-61
2021/05/22 07:01:27;;;;;;;5.18;1.30;;;;;;;;;;5063946;28;20027;-61
2021/05/22 07:03:54;;;;;;;4.85;1.10;;;;;;;;;;5112026;28;20038;-60
2021/05/22 07:06:22;;;;;;;3.35;1.25;;;;;;;;;;5113208;28;20472;-62
2021/05/22 07:08:49;;;;;;;3.00;1.25;;;;;;;;;;5113114;28;20030;-61
2021/05/22 07:11:16;;;;;;;4.55;1.48;;;;;;;;;;5113411;28;20019;-63
2021/05/22 07:13:42;;;;;;;5.25;1.33;;;;;;;;;;5113158;28;20020;-62
2021/05/22 07:16:08;;;;;;;2.55;1.20;;;;;;;;;;5113272;28;20027;-63
2021/05/22 07:18:34;;;;;;;3.45;1.30;;;;;;;;;;5113287;28;20020;-60
2021/05/22 07:21:00;;;;;;;3.72;1.15;;;;;;;;;;5113346;28;20043;-60
2021/05/22 07:23:26;;;;;;;5.50;1.50;;;;;;;;;;5112891;28;20035;-60
2021/05/22 07:25:52;;;;;;;4.22;1.27;;;;;;;;;;5113060;28;20447;-61
2021/05/22 07:28:18;;;;;;;5.13;1.17;;;;;;;;;;5112783;28;20050;-61
2021/05/22 07:30:44;;;;;;;4.35;1.30;;;;;;;;;;5112942;28;20099;-61
2021/05/22 07:33:11;;;;;;;4.75;1.20;;;;;;;;;;5113166;28;20024;-60
2021/05/22 07:35:37;;;;;;;8.43;1.73;;;;;;;;;;5027003;28;20408;-60
2021/05/22 07:38:03;;;;;;;3.83;1.10;;;;;;;;;;5009416;28;20406;-60
2021/05/22 07:40:29;;;;;;;3.33;1.23;;;;;;;;;;5009509;28;20097;-61
2021/05/22 07:42:55;;;;;;;3.38;1.20;;;;;;;;;;5009597;28;20551;-61
2021/05/22 07:45:21;;;;;;;4.97;1.33;;;;;;;;;;5009704;28;20471;-63
2021/05/22 07:47:47;;;;;;;3.78;1.20;;;;;;;;;;5009624;28;20026;-62
2021/05/22 07:50:13;;;;;;;2.97;1.02;;;;;;;;;;5008494;28;20037;-60
2021/05/22 07:52:40;;;;;;;4.28;1.23;;;;;;;;;;5009298;28;20052;-62
2021/05/22 07:55:08;;;;;;;5.78;1.35;;;;;;;;;;5009277;28;20057;-61
2021/05/22 07:57:34;;;;;;;3.30;1.30;;;;;;;;;;5009106;28;20030;-61
2021/05/22 08:00:00;;;;;;;3.25;1.27;;;;;;;;;;5040934;28;20022;-63
2021/05/22 08:02:26;;;;;;;4.53;1.63;;;;;;;;;;5008918;28;20028;-61
2021/05/22 08:04:52;;;;;;;4.30;1.45;;;;;;;;;;5009072;28;20486;-60
2021/05/22 08:07:18;;;;;;;2.92;1.33;;;;;;;;;;5009286;28;20026;-61
2021/05/22 08:09:45;;;;;;;3.53;1.08;;;;;;;;;;5009085;28;20127;-61
2021/05/22 08:12:11;;;;;;;2.67;1.20;;;;;;;;;;5009139;28;20021;-62
2021/05/22 08:14:37;;;;;;;2.05;0.90;;;;;;;;;;5008909;28;20022;-58
2021/05/22 08:17:03;;;;;;;3.95;1.42;;;;;;;;;;5008988;28;20455;-62
2021/05/22 08:19:29;;;;;;;6.03;1.58;;;;;;;;;;5009019;28;20082;-58
2021/05/22 08:21:55;;;;;;;3.63;1.23;;;;;;;;;;5008915;28;20021;-60
2021/05/22 08:24:21;;;;;;;3.35;1.20;;;;;;;;;;5009041;28;20034;-59
2021/05/22 08:26:47;;;;;;;9.43;1.33;;;;;;;;;;5008906;28;20154;-63
2021/05/22 08:29:14;;;;;;;7.55;1.08;;;;;;;;;;5008975;28;20398;-61
2021/05/22 08:31:40;;;;;;;4.88;1.13;;;;;;;;;;5008896;28;20026;-59
2021/05/22 08:34:06;;;;;;;4.13;1.30;;;;;;;;;;5008599;28;20029;-61
2021/05/22 08:36:32;;;;;;;3.53;1.33;;;;;;;;;;5008719;28;20093;-61
2021/05/22 08:38:59;;;;;;;7.75;1.70;;;;;;;;;;5008671;28;20053;-59
2021/05/22 08:41:25;;;;;;;21.63;4.07;;;;;;;;;;5008847;28;20018;-63
2021/05/22 08:43:51;;;;;;;22.20;5.82;;;;;;;;;;5008756;28;20037;-55
2021/05/22 08:46:18;;;;;;;40.10;9.27;;;;;;;;;;5002203;28;20447;-51
2021/05/22 08:48:47;;;;;;;25.98;7.93;;;;;;;;;;4994864;28;20113;-51
2021/05/22 08:51:13;;;;;;;29.75;7.60;;;;;;;;;;4988336;28;20027;-58
2021/05/22 08:53:39;;;;;;;33.00;6.97;;;;;;;;;;4988309;28;20438;-55
2021/05/22 08:56:05;;;;;;;22.70;6.88;;;;;;;;;;4988373;28;20022;-55
2021/05/22 08:58:31;;;;;;;26.52;8.27;;;;;;;;;;4987750;28;20092;-61
2021/05/22 09:01:00;;;;;;;32.45;7.30;;;;;;;;;;5002807;28;20052;-61
2021/05/22 09:03:26;;;;;;;33.83;7.57;;;;;;;;;;5001642;28;20066;-61
2021/05/22 09:05:52;;;;;;;24.55;6.32;;;;;;;;;;4998655;28;20102;-62
2021/05/22 09:08:18;;;;;;;22.10;5.43;;;;;;;;;;4995745;28;20485;-64
2021/05/22 09:10:46;;;;;;;22.60;6.60;;;;;;;;;;4996307;28;20027;-61
2021/05/22 09:13:31;;;;;;;15.32;5.40;;;;;;;;;;5037777;28;20500;-62
2021/05/22 09:16:02;;;;;;;22.30;5.72;;;;;;;;;;4992148;28;20071;-61
2021/05/22 09:18:32;;;;;;;18.42;4.90;;;;;;;;;;4992104;28;20038;-62
2021/05/22 09:20:59;;;;;;;24.30;5.82;;;;;;;;;;4992093;28;20099;-62
2021/05/22 09:23:27;;;;;;;31.55;5.93;;;;;;;;;;4994547;28;20042;-65
2021/05/22 09:25:54;;;;;;;22.05;5.05;;;;;;;;;;4999447;28;20014;-63
2021/05/22 09:28:22;;;;;;;17.48;5.03;;;;;;;;;;5010667;28;20026;-65
2021/05/22 09:30:49;;;;;;;27.13;6.07;;;;;;;;;;5027222;28;20030;-62
2021/05/22 09:33:17;;;;;;;24.98;5.25;;;;;;;;;;5027519;28;20093;-61
2021/05/22 09:35:50;;;;;;;23.52;4.60;;;;;;;;;;5041866;28;20023;-60
2021/05/22 09:38:16;;;;;;;16.38;4.85;;;;;;;;;;5063539;28;20042;-61
2021/05/22 09:40:42;;;;;;;22.50;4.40;;;;;;;;;;5085068;28;20028;-61
2021/05/22 09:43:09;;;;;;;22.27;4.65;;;;;;;;;;5042204;28;20393;-60
2021/05/22 09:45:35;;;;;;;20.63;4.40;;;;;;;;;;5098528;28;20017;-61
2021/05/22 09:48:12;;;;;;;18.13;4.50;;;;;;;;;;5061859;28;20047;-64
2021/05/22 09:50:40;;;;;;;16.85;4.15;;;;;;;;;;5067760;28;20037;-60
2021/05/22 09:53:42;;;;;;;15.23;4.28;;;;;;;;;;5045314;28;20019;-61
2021/05/22 09:56:10;;;;;;;18.15;3.95;;;;;;;;;;5078789;28;20039;-61
2021/05/22 09:58:38;;;;;;;10.13;3.13;;;;;;;;;;5057816;28;20040;-62
2021/05/22 10:01:04;;;;;;;11.23;2.88;;;;;;;;;;5062096;28;20030;-63
2021/05/22 10:03:30;;;;;;;14.57;3.15;;;;;;;;;;5010731;28;20045;-63
2021/05/22 10:05:57;;;;;;;14.63;3.95;;;;;;;;;;5042900;28;20373;-63
2021/05/22 10:08:23;;;;;;;18.10;4.63;;;;;;;;;;5010522;28;20576;-62
2021/05/22 10:10:50;;;;;;;19.52;3.67;;;;;;;;;;5017116;28;20041;-67
2021/05/22 10:13:18;;;;;;;21.38;3.80;;;;;;;;;;5015494;28;20030;-62
2021/05/22 10:15:45;;;;;;;22.77;4.30;;;;;;;;;;5009466;28;20011;-61
2021/05/22 10:18:12;;;;;;;20.10;3.53;;;;;;;;;;5072674;28;20021;-61
2021/05/22 10:20:38;;;;;;;18.08;3.75;;;;;;;;;;5028492;28;20534;-62
2021/05/22 10:23:06;;;;;;;14.35;3.25;;;;;;;;;;5057995;28;20119;-62
2021/05/22 10:25:32;;;;;;;16.13;3.22;;;;;;;;;;5027468;28;20030;-63
2021/05/22 10:27:59;;;;;;;21.85;3.58;;;;;;;;;;5030721;28;20109;-61
2021/05/22 10:30:25;;;;;;;21.77;3.25;;;;;;;;;;5030778;28;20025;-62
2021/05/22 10:32:58;;;;;;;16.20;2.63;;;;;;;;;;5029615;28;20009;-62
2021/05/22 10:35:25;;;;;;;18.33;3.28;;;;;;;;;;5028575;28;20021;-61
2021/05/22 10:37:52;;;;;;;16.35;3.13;;;;;;;;;;5028491;28;20428;-61
2021/05/22 10:40:20;;;;;;;15.75;2.97;;;;;;;;;;5028634;28;20022;-63
2021/05/22 10:42:56;;;;;;;35.08;2.42;;;;;;;;;;5028638;28;20041;-61
2021/05/22 10:45:25;;;;;;;14.85;2.30;;;;;;;;;;5030225;28;20025;-62
2021/05/22 10:47:51;;;;;;;11.00;2.40;;;;;;;;;;5030464;28;20022;-62
2021/05/22 10:50:32;;;;;;;15.10;2.67;;;;;;;;;;5030486;28;20025;-64
2021/05/22 10:53:17;;;;;;;12.55;2.28;;;;;;;;;;5030540;28;20028;-62
2021/05/22 10:55:43;;;;;;;8.82;2.45;;;;;;;;;;5030479;28;20026;-61
2021/05/22 10:58:11;;;;;;;9.32;2.28;;;;;;;;;;5030667;28;20060;-61
2021/05/22 11:00:37;;;;;;;9.40;2.20;;;;;;;;;;5023273;28;20018;-62
2021/05/22 11:03:06;;;;;;;6.10;1.90;;;;;;;;;;4990911;28;20041;-61
2021/05/22 11:05:33;;;;;;;6.95;1.83;;;;;;;;;;4990873;28;20018;-64
2021/05/22 11:08:22;;;;;;;10.43;2.17;;;;;;;;;;4990773;28;20521;-61
2021/05/22 11:10:51;;;;;;;10.48;2.00;;;;;;;;;;4997864;28;20681;-63
2021/05/22 11:13:23;;;;;;;6.30;2.13;;;;;;;;;;4990631;28;20033;-64
2021/05/22 11:15:54;;;;;;;10.05;1.80;;;;;;;;;;4990882;28;20022;-62
2021/05/22 11:18:40;;;;;;;6.97;1.83;;;;;;;;;;5022221;28;20035;-63
2021/05/22 11:21:24;;;;;;;5.72;1.50;;;;;;;;;;5000531;28;20031;-63
2021/05/22 11:23:59;;;;;;;10.15;2.22;;;;;;;;;;4990372;28;20360;-63
2021/05/22 11:26:58;;;;;;;5.90;1.80;;;;;;;;;;4990604;28;20015;-62
2021/05/22 11:29:44;;;;;;;7.18;1.80;;;;;;;;;;5001750;28;20038;-61
2021/05/22 11:32:29;;;;;;;7.75;1.60;;;;;;;;;;4990750;28;20049;-62
2021/05/22 11:34:55;;;;;;;4.53;1.50;;;;;;;;;;4990742;28;20034;-61
2021/05/22 11:37:34;;;;;;;7.60;1.73;;;;;;;;;;4990243;28;20081;-61
2021/05/22 11:40:00;;;;;;;3.90;1.25;;;;;;;;;;4990445;28;20034;-64
2021/05/22 11:42:33;;;;;;;6.85;1.67;;;;;;;;;;4990425;28;20057;-63
2021/05/22 11:45:00;;;;;;;8.45;1.40;;;;;;;;;;4990474;28;20037;-62
2021/05/22 11:47:30;;;;;;;4.57;1.52;;;;;;;;;;4990400;28;20026;-63
2021/05/22 11:49:56;;;;;;;7.93;1.77;;;;;;;;;;4990265;28;20026;-64
2021/05/22 11:52:26;;;;;;;3.28;1.13;;;;;;;;;;4990264;28;20034;-64
2021/05/22 11:54:52;;;;;;;4.75;1.33;;;;;;;;;;4989885;28;20052;-62
2021/05/22 11:57:18;;;;;;;6.53;1.50;;;;;;;;;;4989986;28;20081;-64
2021/05/22 11:59:45;;;;;;;4.95;1.23;;;;;;;;;;4990235;28;20026;-62
2021/05/22 12:02:11;;;;;;;4.82;1.10;;;;;;;;;;4989959;28;20018;-63
2021/05/22 12:04:48;;;;;;;5.55;1.30;;;;;;;;;;4990257;28;20211;-64
2021/05/22 12:07:14;;;;;;;3.72;0.95;;;;;;;;;;4990133;28;20034;-64
2021/05/22 12:09:40;;;;;;;4.20;1.50;;;;;;;;;;4990185;28;20034;-61
2021/05/22 12:12:09;;;;;;;4.53;1.08;;;;;;;;;;4990108;28;20087;-61
2021/05/22 12:14:36;;;;;;;5.13;1.10;;;;;;;;;;4989611;28;20470;-62
2021/05/22 12:17:03;;;;;;;3.17;0.98;;;;;;;;;;4989931;28;20041;-63
2021/05/22 12:19:33;;;;;;;5.57;1.00;;;;;;;;;;5021351;28;20498;-63
2021/05/22 12:21:59;;;;;;;7.75;1.00;;;;;;;;;;4989810;28;20026;-63
2021/05/22 12:24:25;;;;;;;2.22;0.95;;;;;;;;;;4989026;28;20065;-61
2021/05/22 12:26:53;;;;;;;3.10;1.00;;;;;;;;;;4989861;28;20030;-63
2021/05/22 12:29:20;;;;;;;4.72;0.80;;;;;;;;;;4989771;28;20052;-63
2021/05/22 12:31:47;;;;;;;3.80;0.90;;;;;;;;;;4989920;28;20023;-63
2021/05/22 12:34:13;;;;;;;5.32;0.85;;;;;;;;;;4989402;28;20092;-62
2021/05/22 12:37:00;;;;;;;2.65;1.00;;;;;;;;;;4989276;28;20152;-64
2021/05/22 12:39:36;;;;;;;4.50;0.85;;;;;;;;;;4989739;28;20041;-63
2021/05/22 12:42:19;;;;;;;4.28;0.90;;;;;;;;;;4989833;28;20027;-61
2021/05/22 12:44:46;;;;;;;4.53;1.17;;;;;;;;;;4989849;28;20049;-63
2021/05/22 12:47:13;;;;;;;2.38;0.73;;;;;;;;;;5021101;28;20027;-63
2021/05/22 12:49:50;;;;;;;4.70;0.70;;;;;;;;;;4989644;28;20023;-61
2021/05/22 12:52:16;;;;;;;3.00;0.70;;;;;;;;;;4989486;28;20152;-62
2021/05/22 12:54:44;;;;;;;1.52;0.70;;;;;;;;;;4989536;28;20513;-63
2021/05/22 12:57:12;;;;;;;2.13;0.65;;;;;;;;;;4989695;28;20058;-63
2021/05/22 12:59:58;;;;;;;1.17;0.52;;;;;;;;;;4989396;28;20026;-61
2021/05/22 13:02:26;;;;;;;1.80;0.70;;;;;;;;;;4997554;28;20040;-62
2021/05/22 13:04:52;;;;;;;1.65;0.50;;;;;;;;;;4989327;28;20501;-61
2021/05/22 13:07:21;;;;;;;2.60;0.70;;;;;;;;;;4989408;28;20049;-61
2021/05/22 13:09:50;;;;;;;1.27;0.60;;;;;;;;;;4989304;28;20113;-62
2021/05/22 13:12:17;;;;;;;2.60;0.80;;;;;;;;;;4989389;28;20019;-61
2021/05/22 13:15:09;;;;;;;1.90;0.88;;;;;;;;;;4989333;28;20054;-61
2021/05/22 13:17:52;;;;;;;1.92;0.60;;;;;;;;;;4991937;28;20084;-63
2021/05/22 13:20:22;;;;;;;1.63;0.50;;;;;;;;;;4989407;28;20109;-62
2021/05/22 13:22:49;;;;;;;1.13;0.55;;;;;;;;;;4989264;28;20471;-62
2021/05/22 13:25:19;;;;;;;3.33;0.50;;;;;;;;;;4989243;28;20031;-63
2021/05/22 13:28:04;;;;;;;2.25;0.95;;;;;;;;;;4989170;28;20080;-62
2021/05/22 13:30:32;;;;;;;1.63;0.60;;;;;;;;;;4989336;28;20026;-63
2021/05/22 13:32:58;;;;;;;1.40;0.57;;;;;;;;;;4989195;28;20102;-62
2021/05/22 13:35:26;;;;;;;2.90;0.77;;;;;;;;;;4989236;28;20464;-62
2021/05/22 13:37:53;;;;;;;1.23;0.40;;;;;;;;;;4988917;28;20083;-63
2021/05/22 13:40:20;;;;;;;1.50;0.52;;;;;;;;;;4988805;28;20057;-62
2021/05/22 13:42:46;;;;;;;2.03;0.60;;;;;;;;;;5020322;28;20152;-61
2021/05/22 13:45:12;;;;;;;1.33;0.50;;;;;;;;;;4988836;28;20031;-61
2021/05/22 13:47:38;;;;;;;2.40;0.70;;;;;;;;;;4990342;28;20115;-63
2021/05/22 13:50:07;;;;;;;1.60;0.52;;;;;;;;;;4992242;28;20474;-63
2021/05/22 13:52:33;;;;;;;2.70;0.82;;;;;;;;;;5023820;28;20027;-62
2021/05/22 13:54:59;;;;;;;1.40;0.50;;;;;;;;;;5023805;28;20100;-62
2021/05/22 13:57:25;;;;;;;1.65;0.60;;;;;;;;;;4992120;28;20045;-63
2021/05/22 13:59:51;;;;;;;1.73;0.50;;;;;;;;;;4992160;28;20083;-64
2021/05/22 14:02:17;;;;;;;1.00;0.40;;;;;;;;;;5023357;28;20378;-61
2021/05/22 14:04:43;;;;;;;1.13;0.43;;;;;;;;;;4992233;28;20057;-63
2021/05/22 14:07:09;;;;;;;1.55;0.40;;;;;;;;;;4991998;28;20022;-63
2021/05/22 14:09:35;;;;;;;1.70;0.55;;;;;;;;;;4992082;28;20034;-62
2021/05/22 14:12:01;;;;;;;1.00;0.50;;;;;;;;;;5023565;28;20026;-61
2021/05/22 14:14:28;;;;;;;1.50;0.60;;;;;;;;;;4991818;28;20041;-61
2021/05/22 14:16:54;;;;;;;1.30;0.50;;;;;;;;;;4991825;28;20091;-62
2021/05/22 14:19:20;;;;;;;1.17;0.50;;;;;;;;;;4991727;28;20055;-62
2021/05/22 14:21:46;;;;;;;1.08;0.45;;;;;;;;;;4991675;28;20031;-61
2021/05/22 14:24:12;;;;;;;1.55;0.60;;;;;;;;;;4991541;28;20152;-63
2021/05/22 14:26:38;;;;;;;1.42;0.60;;;;;;;;;;5005678;28;20030;-63
2021/05/22 14:29:04;;;;;;;1.73;0.68;;;;;;;;;;5011387;28;20018;-63
2021/05/22 14:31:30;;;;;;;1.20;0.50;;;;;;;;;;5011356;28;20531;-64
2021/05/22 14:33:56;;;;;;;1.30;0.57;;;;;;;;;;5011216;28;20079;-62
2021/05/22 14:36:22;;;;;;;0.73;0.40;;;;;;;;;;5011114;28;20026;-62
2021/05/22 14:38:48;;;;;;;1.05;0.40;;;;;;;;;;5010954;28;20125;-62
2021/05/22 14:41:14;;;;;;;1.08;0.47;;;;;;;;;;5011260;28;20022;-63
2021/05/22 14:43:40;;;;;;;1.98;0.50;;;;;;;;;;5011058;28;20034;-63